Time;durP1;ratioP1;P1;durP2;ratioP2;P2;SDS_P1;SDS_P2;PMS_P1;PMS_P2;Temp;Humidity;BMP_temperature;BMP_pressure;BME280_temperature;BME280_humidity;BME280_pressure;Samples;Min_cycle;Max_cycle;Signal;HPM_P1;HPM_P2
2022/12/25 00:00:29;;;;;;;0.00;0.00;;;5.80;93.50;;;;;;5009867;28;20045;-67
2022/12/25 00:02:55;;;;;;;0.55;0.55;;;5.70;93.60;;;;;;4992933;28;20034;-68
2022/12/25 00:05:20;;;;;;;0.00;0.00;;;5.80;93.60;;;;;;5010192;28;20038;-67
2022/12/25 00:07:46;;;;;;;0.00;0.00;;;5.80;93.60;;;;;;5008111;28;21579;-68
2022/12/25 00:10:12;;;;;;;0.00;0.00;;;5.80;93.60;;;;;;4991749;28;20056;-68
2022/12/25 00:12:37;;;;;;;0.00;0.00;;;5.80;93.60;;;;;;5009387;28;20085;-68
2022/12/25 00:15:03;;;;;;;0.00;0.00;;;5.80;93.70;;;;;;5008277;28;20046;-68
2022/12/25 00:17:29;;;;;;;0.00;0.00;;;5.70;93.60;;;;;;5009426;28;20053;-68
2022/12/25 00:19:55;;;;;;;0.00;0.00;;;5.70;93.70;;;;;;4989242;28;20034;-68
2022/12/25 00:22:20;;;;;;;0.03;0.03;;;5.70;93.70;;;;;;5009784;28;20513;-68
2022/12/25 00:24:47;;;;;;;0.00;0.00;;;5.70;93.70;;;;;;5005500;28;20053;-68
2022/12/25 00:27:12;;;;;;;0.00;0.00;;;5.70;93.70;;;;;;5008119;28;20046;-68
2022/12/25 00:29:38;;;;;;;0.20;0.20;;;5.70;93.80;;;;;;5008892;28;20042;-68
2022/12/25 00:32:04;;;;;;;0.00;0.00;;;5.70;93.80;;;;;;5007935;28;20057;-68
2022/12/25 00:34:29;;;;;;;0.08;0.08;;;5.70;93.80;;;;;;5008649;28;20048;-68
2022/12/25 00:36:55;;;;;;;0.00;0.00;;;5.70;93.80;;;;;;5010043;28;20045;-68
2022/12/25 00:39:20;;;;;;;0.00;0.00;;;5.70;93.90;;;;;;5006292;28;20045;-68
2022/12/25 00:44:30;;;;;;;0.00;0.00;;;5.70;93.90;;;;;;5005245;28;20050;-67
2022/12/25 00:46:56;;;;;;;1.75;1.65;;;5.70;93.90;;;;;;5007570;28;20042;-67
2022/12/25 00:49:22;;;;;;;0.00;0.00;;;5.80;93.90;;;;;;5009273;28;20045;-68
2022/12/25 00:51:51;;;;;;;0.00;0.00;;;5.70;93.90;;;;;;5010182;28;20033;-68
2022/12/25 00:54:17;;;;;;;0.10;0.10;;;5.70;93.80;;;;;;5009352;28;20042;-68
2022/12/25 00:56:43;;;;;;;0.00;0.00;;;5.80;93.80;;;;;;5009675;28;20133;-67
2022/12/25 00:59:09;;;;;;;0.00;0.00;;;5.80;93.90;;;;;;4993122;28;20125;-67
2022/12/25 01:01:35;;;;;;;0.05;0.05;;;5.80;93.90;;;;;;5007796;28;20122;-68
2022/12/25 01:04:00;;;;;;;0.00;0.00;;;5.80;93.90;;;;;;5007617;28;20064;-68
2022/12/25 01:06:26;;;;;;;0.10;0.10;;;5.80;93.90;;;;;;5009649;28;20042;-68
2022/12/25 01:11:36;;;;;;;0.08;0.08;;;5.80;94.00;;;;;;5009221;28;20050;-68
2022/12/25 01:14:02;;;;;;;1.02;0.95;;;5.80;94.00;;;;;;5002375;28;20093;-67
2022/12/25 01:16:28;;;;;;;0.35;0.35;;;5.80;94.00;;;;;;5008858;28;20125;-68
2022/12/25 01:18:54;;;;;;;0.80;0.80;;;5.90;94.10;;;;;;5008400;28;20495;-68
2022/12/25 01:21:22;;;;;;;3.70;0.57;;;5.90;94.10;;;;;;5007318;28;20038;-68
2022/12/25 01:23:49;;;;;;;0.00;0.00;;;5.90;94.10;;;;;;5003228;28;20136;-68
2022/12/25 01:26:16;;;;;;;0.00;0.00;;;5.90;94.10;;;;;;5007383;28;20045;-68
2022/12/25 01:28:42;;;;;;;0.00;0.00;;;5.90;94.10;;;;;;5006764;28;20129;-68
2022/12/25 01:31:13;;;;;;;0.00;0.00;;;5.90;94.10;;;;;;5003540;28;20129;-68
2022/12/25 01:33:40;;;;;;;0.00;0.00;;;5.90;94.20;;;;;;5006382;28;20049;-68
2022/12/25 01:36:17;;;;;;;0.20;0.20;;;6.00;94.20;;;;;;4998297;28;20494;-68
2022/12/25 01:38:44;;;;;;;0.03;0.03;;;6.00;94.20;;;;;;5005819;28;20491;-68
2022/12/25 01:41:12;;;;;;;1.55;0.60;;;6.00;94.20;;;;;;5013887;28;20089;-68
2022/12/25 01:44:04;;;;;;;0.00;0.00;;;6.10;94.30;;;;;;5021622;28;20495;-68
2022/12/25 01:46:30;;;;;;;1.48;1.38;;;6.10;94.30;;;;;;5026804;28;20410;-68
2022/12/25 01:48:59;;;;;;;0.00;0.00;;;6.20;94.30;;;;;;5009806;28;20053;-68
2022/12/25 01:51:40;;;;;;;0.00;0.00;;;6.20;94.30;;;;;;5029049;28;20077;-68
2022/12/25 01:54:10;;;;;;;0.03;0.03;;;6.30;94.40;;;;;;5034908;28;20082;-68
2022/12/25 01:56:37;;;;;;;0.10;0.10;;;6.40;94.50;;;;;;5000791;28;20030;-68
2022/12/25 01:59:04;;;;;;;0.00;0.00;;;6.40;94.40;;;;;;5035000;28;20052;-68
2022/12/25 02:01:29;;;;;;;0.10;0.10;;;6.50;94.50;;;;;;5017007;28;20041;-68
2022/12/25 02:04:19;;;;;;;0.20;0.20;;;6.50;94.50;;;;;;5034261;28;20049;-68
2022/12/25 02:06:46;;;;;;;0.10;0.10;;;6.60;94.60;;;;;;5023095;28;20060;-68
2022/12/25 02:09:11;;;;;;;0.00;0.00;;;6.70;94.60;;;;;;5017558;28;20079;-68
2022/12/25 02:11:55;;;;;;;0.10;0.10;;;6.70;94.60;;;;;;5034535;28;20076;-68
2022/12/25 02:14:21;;;;;;;1.42;1.35;;;6.70;94.60;;;;;;5033690;28;20052;-68
2022/12/25 02:16:49;;;;;;;0.00;0.00;;;6.70;94.60;;;;;;5017386;28;20049;-68
2022/12/25 02:19:37;;;;;;;0.10;0.10;;;6.80;94.60;;;;;;5034462;28;20068;-68
2022/12/25 02:22:21;;;;;;;0.08;0.08;;;6.90;94.70;;;;;;5029452;28;20060;-68
2022/12/25 02:24:53;;;;;;;1.20;0.73;;;6.90;94.70;;;;;;5024007;28;20125;-68
2022/12/25 02:27:46;;;;;;;1.55;1.45;;;6.90;94.70;;;;;;5032109;28;20037;-67
2022/12/25 02:30:12;;;;;;;0.00;0.00;;;6.90;94.70;;;;;;5010251;28;20050;-68
2022/12/25 02:34:01;;;;;;;0.43;0.32;;;7.00;94.80;;;;;;5032821;28;20508;-68
2022/12/25 02:35:52;;;;;;;0.00;0.00;;;7.00;94.80;;;;;;5034221;28;20128;-68
2022/12/25 02:38:32;;;;;;;0.00;0.00;;;7.10;94.80;;;;;;5008706;28;20502;-68
2022/12/25 02:41:04;;;;;;;0.00;0.00;;;7.10;94.70;;;;;;5015207;28;20514;-68
2022/12/25 03:06:45;;;;;;;0.00;0.00;;;7.40;94.90;;;;;;5029657;28;20491;-69
2022/12/25 03:12:12;;;;;;;0.00;0.00;;;7.40;94.90;;;;;;5030401;28;20054;-68
2022/12/25 03:17:23;;;;;;;0.00;0.00;;;7.40;94.80;;;;;;5029296;28;20049;-67
2022/12/25 03:28:04;;;;;;;0.13;0.13;;;7.40;94.90;;;;;;5026102;28;20046;-67
2022/12/25 03:31:12;;;;;;;0.00;0.00;;;7.40;94.90;;;;;;5029044;28;20049;-67
2022/12/25 03:36:47;;;;;;;0.00;0.00;;;7.50;94.90;;;;;;5027311;28;20041;-67
2022/12/25 04:37:46;;;;;;;0.00;0.00;;;7.70;95.20;;;;;;5019082;28;20561;-68
2022/12/25 04:40:12;;;;;;;0.00;0.00;;;7.70;95.10;;;;;;5025678;28;20129;-67
2022/12/25 04:42:38;;;;;;;0.10;0.10;;;7.70;95.10;;;;;;5031189;28;20418;-68
2022/12/25 04:45:04;;;;;;;0.22;0.22;;;7.70;95.20;;;;;;5027314;28;20509;-67
2022/12/25 04:47:29;;;;;;;0.00;0.00;;;7.70;95.10;;;;;;5034235;28;20046;-68
2022/12/25 04:49:55;;;;;;;0.00;0.00;;;7.70;95.10;;;;;;5030744;28;20052;-67
2022/12/25 04:52:20;;;;;;;0.03;0.03;;;7.70;95.10;;;;;;5029873;28;20049;-68
2022/12/25 04:54:46;;;;;;;0.10;0.10;;;7.70;95.10;;;;;;4995593;28;20075;-68
2022/12/25 04:57:11;;;;;;;0.00;0.00;;;7.70;95.10;;;;;;5029410;28;20413;-68
2022/12/25 04:59:37;;;;;;;0.00;0.00;;;7.70;95.10;;;;;;5037570;28;20036;-68
2022/12/25 05:02:02;;;;;;;0.20;0.20;;;7.70;95.10;;;;;;5032713;28;20099;-68
2022/12/25 05:04:28;;;;;;;0.00;0.00;;;7.70;95.10;;;;;;5028868;28;20052;-67
2022/12/25 05:06:53;;;;;;;0.00;0.00;;;7.70;95.10;;;;;;5028532;28;20034;-67
2022/12/25 05:09:20;;;;;;;0.00;0.00;;;7.70;95.10;;;;;;5009485;28;20053;-68
2022/12/25 05:11:46;;;;;;;0.20;0.20;;;7.70;95.10;;;;;;5010434;28;20042;-68
2022/12/25 05:14:11;;;;;;;0.00;0.00;;;7.70;95.20;;;;;;5028410;28;20095;-68
2022/12/25 05:16:37;;;;;;;0.03;0.03;;;7.80;95.20;;;;;;5027805;28;20045;-67
2022/12/25 05:19:03;;;;;;;0.00;0.00;;;7.80;95.10;;;;;;5026518;28;20037;-67
2022/12/25 05:21:28;;;;;;;0.00;0.00;;;7.70;95.20;;;;;;5024613;28;21641;-68
2022/12/25 05:23:54;;;;;;;0.00;0.00;;;7.70;95.20;;;;;;5026327;28;20099;-68
2022/12/25 05:26:22;;;;;;;0.00;0.00;;;7.80;95.20;;;;;;5026214;28;20068;-67
2022/12/25 05:28:48;;;;;;;0.15;0.15;;;7.80;95.30;;;;;;5025627;28;20041;-67
2022/12/25 05:31:14;;;;;;;0.20;0.20;;;7.80;95.20;;;;;;5026524;28;20037;-67
2022/12/25 05:33:40;;;;;;;0.00;0.00;;;7.80;95.20;;;;;;5025916;28;20029;-68
2022/12/25 05:36:07;;;;;;;0.00;0.00;;;7.80;95.20;;;;;;5022872;28;20081;-67
2022/12/25 05:38:33;;;;;;;1.42;1.33;;;7.80;95.20;;;;;;5026137;28;20910;-67
2022/12/25 05:40:59;;;;;;;0.00;0.00;;;7.90;95.20;;;;;;5027194;28;20140;-67
2022/12/25 05:43:26;;;;;;;2.55;1.75;;;7.80;95.20;;;;;;5026903;28;20128;-67
2022/12/25 05:45:51;;;;;;;0.00;0.00;;;7.90;95.20;;;;;;5026304;28;20045;-68
2022/12/25 05:48:17;;;;;;;0.00;0.00;;;7.90;95.20;;;;;;5025125;28;20049;-67
2022/12/25 05:50:43;;;;;;;0.00;0.00;;;7.90;95.20;;;;;;5008747;28;20414;-67
2022/12/25 05:53:10;;;;;;;0.00;0.00;;;7.90;95.20;;;;;;5009809;28;20044;-67
2022/12/25 05:55:38;;;;;;;0.00;0.00;;;7.90;95.20;;;;;;5026477;28;20041;-67
2022/12/25 05:58:05;;;;;;;0.00;0.00;;;7.90;95.20;;;;;;5025460;28;20053;-67
2022/12/25 06:00:32;;;;;;;0.00;0.00;;;8.00;95.30;;;;;;5026368;28;20417;-67
2022/12/25 06:02:57;;;;;;;0.00;0.00;;;8.00;95.30;;;;;;5026376;28;20042;-68
2022/12/25 06:05:23;;;;;;;0.47;0.47;;;8.00;95.30;;;;;;5025381;28;20049;-67
2022/12/25 06:07:49;;;;;;;0.10;0.10;;;8.00;95.30;;;;;;5009188;28;20076;-68
2022/12/25 06:10:15;;;;;;;0.20;0.20;;;8.00;95.30;;;;;;5026367;28;20038;-67
2022/12/25 06:12:40;;;;;;;0.10;0.10;;;8.10;95.30;;;;;;5023668;28;20132;-68
2022/12/25 06:15:07;;;;;;;0.65;0.65;;;8.00;95.30;;;;;;5023589;28;20044;-68
2022/12/25 06:17:32;;;;;;;0.00;0.00;;;8.10;95.30;;;;;;5025565;28;20612;-68
2022/12/25 06:19:58;;;;;;;0.40;0.40;;;8.10;95.30;;;;;;5026427;28;20042;-67
2022/12/25 06:22:28;;;;;;;0.22;0.22;;;8.10;95.30;;;;;;5025232;28;20597;-68
2022/12/25 06:24:53;;;;;;;0.00;0.00;;;8.10;95.30;;;;;;5025711;28;20111;-67
2022/12/25 06:27:19;;;;;;;0.28;0.28;;;8.20;95.30;;;;;;5025197;28;20827;-67
2022/12/25 06:29:44;;;;;;;0.60;0.52;;;8.20;95.30;;;;;;5022694;28;20049;-67
2022/12/25 06:32:10;;;;;;;0.10;0.10;;;8.20;95.30;;;;;;5022118;28;20145;-67
2022/12/25 06:34:36;;;;;;;0.00;0.00;;;8.30;95.30;;;;;;5026121;28;20034;-67
2022/12/25 06:37:01;;;;;;;0.20;0.20;;;8.30;95.30;;;;;;5024163;28;20037;-67
2022/12/25 06:39:27;;;;;;;0.75;0.75;;;8.20;95.30;;;;;;5026677;28;20049;-67
2022/12/25 06:41:52;;;;;;;0.10;0.10;;;8.30;95.30;;;;;;5029614;28;20056;-67
2022/12/25 06:44:18;;;;;;;0.03;0.03;;;8.30;95.30;;;;;;5024206;28;20049;-67
2022/12/25 06:46:43;;;;;;;0.00;0.00;;;8.30;95.30;;;;;;5027696;28;20073;-66
2022/12/25 06:49:09;;;;;;;0.10;0.10;;;8.30;95.30;;;;;;5027507;28;20512;-66
2022/12/25 06:51:35;;;;;;;0.00;0.00;;;8.30;95.30;;;;;;5028742;28;20125;-67
2022/12/25 06:54:04;;;;;;;0.00;0.00;;;8.30;95.30;;;;;;5014624;28;20053;-67
2022/12/25 06:56:30;;;;;;;0.08;0.08;;;8.40;95.30;;;;;;5029871;28;20087;-67
2022/12/25 06:58:58;;;;;;;0.30;0.30;;;8.30;95.30;;;;;;5028012;28;20128;-67
2022/12/25 07:01:28;;;;;;;0.60;0.60;;;8.40;95.30;;;;;;5029567;28;20121;-67
2022/12/25 07:03:57;;;;;;;0.00;0.00;;;8.40;95.30;;;;;;5029836;28;20092;-67
2022/12/25 07:06:23;;;;;;;0.00;0.00;;;8.40;95.30;;;;;;5030277;28;20044;-67
2022/12/25 07:08:49;;;;;;;0.00;0.00;;;8.40;95.30;;;;;;5010850;28;20045;-67
2022/12/25 07:11:14;;;;;;;0.10;0.10;;;8.40;95.40;;;;;;5027552;28;20053;-67
2022/12/25 07:13:40;;;;;;;0.52;0.52;;;8.40;95.40;;;;;;5029825;28;20046;-67
2022/12/25 07:16:06;;;;;;;0.10;0.10;;;8.40;95.40;;;;;;5029390;28;20052;-67
2022/12/25 07:18:33;;;;;;;0.08;0.08;;;8.40;95.40;;;;;;5028103;28;20037;-67
2022/12/25 07:21:05;;;;;;;0.00;0.00;;;8.40;95.40;;;;;;5008432;28;20077;-67
2022/12/25 07:23:31;;;;;;;0.00;0.00;;;8.30;95.40;;;;;;5028491;28;20462;-68
2022/12/25 07:25:58;;;;;;;0.00;0.00;;;8.40;95.50;;;;;;5024049;28;20060;-67
2022/12/25 07:28:25;;;;;;;0.00;0.00;;;8.40;95.50;;;;;;5026256;28;20049;-67
2022/12/25 07:30:51;;;;;;;0.30;0.30;;;8.40;95.50;;;;;;5027889;28;20046;-67
2022/12/25 07:33:17;;;;;;;0.00;0.00;;;8.40;95.50;;;;;;5024132;28;20394;-67
2022/12/25 07:35:43;;;;;;;0.08;0.08;;;8.40;95.50;;;;;;5024755;28;20104;-67
2022/12/25 07:38:08;;;;;;;0.00;0.00;;;8.40;95.50;;;;;;5028011;28;20041;-67
2022/12/25 07:40:34;;;;;;;0.00;0.00;;;8.40;95.50;;;;;;5028206;28;20053;-68
2022/12/25 07:43:00;;;;;;;0.10;0.10;;;8.40;95.50;;;;;;5026988;28;20058;-68
2022/12/25 07:45:26;;;;;;;0.00;0.00;;;8.40;95.50;;;;;;5028467;28;20053;-67
2022/12/25 07:47:51;;;;;;;0.00;0.00;;;8.40;95.50;;;;;;5025131;28;20041;-68
2022/12/25 07:50:17;;;;;;;0.30;0.30;;;8.40;95.40;;;;;;4996271;28;20594;-68
2022/12/25 07:52:42;;;;;;;0.00;0.00;;;8.40;95.40;;;;;;5015858;28;20049;-68
2022/12/25 07:55:09;;;;;;;0.00;0.00;;;8.40;95.40;;;;;;5028617;28;20052;-67
2022/12/25 07:57:35;;;;;;;0.10;0.10;;;8.40;95.40;;;;;;5010332;28;20433;-67
2022/12/25 08:00:05;;;;;;;0.00;0.00;;;8.40;95.40;;;;;;5027594;28;20096;-66
2022/12/25 08:02:30;;;;;;;0.80;0.80;;;8.40;95.40;;;;;;5026718;28;20033;-66
2022/12/25 08:04:56;;;;;;;0.08;0.08;;;8.40;95.40;;;;;;5028661;28;20060;-66
2022/12/25 08:07:22;;;;;;;0.10;0.10;;;8.40;95.40;;;;;;5023550;28;20053;-66
2022/12/25 08:09:48;;;;;;;0.00;0.00;;;8.40;95.30;;;;;;5026096;28;20057;-66
2022/12/25 08:12:14;;;;;;;0.00;0.00;;;8.40;95.30;;;;;;5028102;28;20043;-66
2022/12/25 08:14:39;;;;;;;0.57;0.57;;;8.40;95.30;;;;;;4993118;28;20469;-66
2022/12/25 08:17:05;;;;;;;0.00;0.00;;;8.40;95.40;;;;;;5026979;28;20072;-66
2022/12/25 08:19:31;;;;;;;0.00;0.00;;;8.40;95.30;;;;;;5010302;28;20064;-67
2022/12/25 08:21:56;;;;;;;0.00;0.00;;;8.40;95.30;;;;;;5027141;28;20049;-66
2022/12/25 08:24:22;;;;;;;0.00;0.00;;;8.40;95.30;;;;;;5028071;28;20060;-66
2022/12/25 08:26:48;;;;;;;0.00;0.00;;;8.40;95.30;;;;;;5010560;28;20061;-66
2022/12/25 08:29:14;;;;;;;0.00;0.00;;;8.40;95.40;;;;;;5025638;28;20061;-66
2022/12/25 08:31:41;;;;;;;0.00;0.00;;;8.30;95.40;;;;;;5027746;28;20038;-65
2022/12/25 08:34:07;;;;;;;0.00;0.00;;;8.30;95.40;;;;;;5024237;28;20049;-65
2022/12/25 08:36:33;;;;;;;0.03;0.03;;;8.30;95.40;;;;;;5027380;28;20034;-65
2022/12/25 08:38:58;;;;;;;0.00;0.00;;;8.30;95.40;;;;;;5006182;28;20044;-65
2022/12/25 08:41:25;;;;;;;0.00;0.00;;;8.30;95.40;;;;;;5028119;28;20057;-65
2022/12/25 08:43:50;;;;;;;0.10;0.10;;;8.30;95.30;;;;;;5027013;28;20034;-66
2022/12/25 08:46:16;;;;;;;0.00;0.00;;;8.40;95.30;;;;;;5026732;28;20768;-66
2022/12/25 08:48:45;;;;;;;0.05;0.05;;;8.40;95.40;;;;;;5024522;28;20049;-66
2022/12/25 08:51:15;;;;;;;0.00;0.00;;;8.40;95.40;;;;;;5028993;28;20037;-66
2022/12/25 08:53:43;;;;;;;0.05;0.05;;;8.40;95.40;;;;;;5027650;28;20045;-65
2022/12/25 08:56:08;;;;;;;0.15;0.15;;;8.40;95.40;;;;;;5028251;28;20048;-72
2022/12/25 08:58:34;;;;;;;0.00;0.00;;;8.50;95.40;;;;;;5026521;28;20401;-63
2022/12/25 09:01:00;;;;;;;0.00;0.00;;;8.40;95.40;;;;;;5023580;28;20136;-67
2022/12/25 09:03:26;;;;;;;0.10;0.10;;;8.40;95.40;;;;;;5010015;28;20596;-66
2022/12/25 09:05:53;;;;;;;0.00;0.00;;;8.40;95.40;;;;;;5026639;28;20116;-67
2022/12/25 09:08:20;;;;;;;0.10;0.10;;;8.50;95.50;;;;;;5028129;28;20053;-68
2022/12/25 09:10:46;;;;;;;0.68;0.50;;;8.50;95.40;;;;;;5026085;28;20565;-67
2022/12/25 09:13:12;;;;;;;0.00;0.00;;;8.50;95.40;;;;;;5026755;28;20267;-67
2022/12/25 09:15:38;;;;;;;0.65;0.65;;;8.60;95.40;;;;;;5027060;28;20525;-67
2022/12/25 09:18:04;;;;;;;0.00;0.00;;;8.60;95.50;;;;;;5008528;28;20107;-66
2022/12/25 09:20:30;;;;;;;0.00;0.00;;;8.60;95.50;;;;;;5025615;28;20041;-66
2022/12/25 09:22:55;;;;;;;0.00;0.00;;;8.70;95.40;;;;;;5027661;28;20084;-66
2022/12/25 09:25:21;;;;;;;0.15;0.15;;;8.60;95.40;;;;;;5024680;28;20127;-66
2022/12/25 09:27:46;;;;;;;0.00;0.00;;;8.60;95.30;;;;;;5028224;28;20237;-65
2022/12/25 09:30:12;;;;;;;0.05;0.05;;;8.60;95.40;;;;;;5027416;28;20040;-66
2022/12/25 09:32:41;;;;;;;0.00;0.00;;;8.60;95.40;;;;;;5028042;28;20579;-67
2022/12/25 09:35:07;;;;;;;0.00;0.00;;;8.70;95.40;;;;;;5019273;28;20104;-69
2022/12/25 09:37:33;;;;;;;0.55;0.45;;;8.70;95.40;;;;;;5008127;28;20052;-68
2022/12/25 09:39:58;;;;;;;0.00;0.00;;;8.80;95.40;;;;;;5026483;28;20049;-68
2022/12/25 09:42:30;;;;;;;0.00;0.00;;;8.70;95.30;;;;;;5027201;28;20410;-68
2022/12/25 09:44:59;;;;;;;0.08;0.08;;;8.70;95.40;;;;;;5009334;28;20452;-68
2022/12/25 09:47:28;;;;;;;0.00;0.00;;;8.70;95.40;;;;;;5028701;28;20891;-68
2022/12/25 09:50:24;;;;;;;0.00;0.00;;;8.70;95.30;;;;;;5022656;28;20512;-68
2022/12/25 09:53:05;;;;;;;0.00;0.00;;;8.70;95.30;;;;;;5021253;28;20140;-68
2022/12/25 09:55:35;;;;;;;0.00;0.00;;;8.70;95.30;;;;;;5028143;28;20132;-68
2022/12/25 09:58:07;;;;;;;0.00;0.00;;;8.70;95.30;;;;;;5027349;28;20059;-68
2022/12/25 10:00:47;;;;;;;0.63;0.63;;;8.70;95.30;;;;;;4994333;28;20050;-68
2022/12/25 10:03:34;;;;;;;0.00;0.00;;;8.70;95.30;;;;;;5010359;28;20133;-69
2022/12/25 10:06:08;;;;;;;0.00;0.00;;;8.70;95.30;;;;;;5023608;28;20046;-68
2022/12/25 10:08:46;;;;;;;0.15;0.15;;;8.70;95.20;;;;;;5022599;28;20042;-68
2022/12/25 10:11:36;;;;;;;0.13;0.13;;;8.70;95.20;;;;;;5026809;28;20070;-68
2022/12/25 10:14:10;;;;;;;0.00;0.00;;;8.70;95.20;;;;;;4992656;28;20046;-67
2022/12/25 10:16:59;;;;;;;0.00;0.00;;;8.80;95.20;;;;;;5017427;28;20037;-68
2022/12/25 10:19:56;;;;;;;0.00;0.00;;;8.70;95.20;;;;;;5028514;28;20727;-68
2022/12/25 10:22:33;;;;;;;0.08;0.08;;;8.70;95.20;;;;;;5030669;28;20049;-68
2022/12/25 10:25:01;;;;;;;0.00;0.00;;;8.70;95.30;;;;;;5008629;28;20392;-68
2022/12/25 10:27:41;;;;;;;0.20;0.20;;;8.80;95.30;;;;;;5029155;28;20513;-68
2022/12/25 10:30:19;;;;;;;0.00;0.00;;;8.70;95.30;;;;;;5022511;28;20048;-69
2022/12/25 10:32:45;;;;;;;0.00;0.00;;;8.70;95.30;;;;;;5029380;28;20056;-68
2022/12/25 10:35:13;;;;;;;0.03;0.03;;;8.70;95.30;;;;;;4998057;28;20049;-68
2022/12/25 10:37:40;;;;;;;0.08;0.08;;;8.80;95.30;;;;;;5028413;28;20049;-68
2022/12/25 10:40:21;;;;;;;0.10;0.10;;;8.80;95.30;;;;;;5026994;28;20041;-68
2022/12/25 10:42:52;;;;;;;0.35;0.35;;;8.80;95.30;;;;;;5029777;28;20053;-68
2022/12/25 10:45:19;;;;;;;;;;;8.80;95.30;;;;;;5031029;28;20064;-69
2022/12/25 10:47:45;;;;;;;0.05;0.05;;;8.80;95.30;;;;;;5027946;28;19921;-69
2022/12/25 10:50:19;;;;;;;0.10;0.10;;;8.90;95.30;;;;;;5028763;28;20065;-68
2022/12/25 10:53:04;;;;;;;0.00;0.00;;;8.90;95.30;;;;;;5029622;28;20041;-70
2022/12/25 10:55:31;;;;;;;0.20;0.20;;;8.90;95.30;;;;;;5006756;28;20053;-69
2022/12/25 10:57:57;;;;;;;0.00;0.00;;;8.90;95.30;;;;;;5031252;28;20494;-69
2022/12/25 11:00:28;;;;;;;0.00;0.00;;;9.00;95.40;;;;;;5029162;28;20049;-69
2022/12/25 11:02:54;;;;;;;0.00;0.00;;;9.10;95.40;;;;;;5024304;28;20553;-69
2022/12/25 11:05:31;;;;;;;0.00;0.00;;;9.10;95.30;;;;;;5029939;28;20120;-69
2022/12/25 11:07:59;;;;;;;0.00;0.00;;;9.10;95.30;;;;;;5026268;28;20061;-69
2022/12/25 11:10:40;;;;;;;0.63;0.47;;;9.20;95.30;;;;;;5013112;28;20053;-69
2022/12/25 11:13:16;;;;;;;0.03;0.03;;;9.10;95.30;;;;;;5027888;28;20583;-69
2022/12/25 11:15:44;;;;;;;0.22;0.22;;;9.20;95.20;;;;;;5010194;28;20843;-70
2022/12/25 11:18:24;;;;;;;0.00;0.00;;;9.20;95.20;;;;;;5028344;28;20057;-70
2022/12/25 11:21:02;;;;;;;0.00;0.00;;;9.20;95.20;;;;;;5019486;28;20045;-69
2022/12/25 11:23:30;;;;;;;0.00;0.00;;;9.20;95.10;;;;;;5012392;28;20576;-70
2022/12/25 11:26:02;;;;;;;0.03;0.03;;;9.30;95.10;;;;;;5030107;28;20049;-70
2022/12/25 11:28:30;;;;;;;0.00;0.00;;;9.20;95.10;;;;;;5027466;28;20049;-70
2022/12/25 11:31:04;;;;;;;0.00;0.00;;;9.30;95.00;;;;;;5036451;28;20052;-69
2022/12/25 11:33:41;;;;;;;0.00;0.00;;;9.30;95.10;;;;;;4985149;28;20050;-69
2022/12/25 11:36:21;;;;;;;0.00;0.00;;;9.30;95.00;;;;;;5022813;28;20045;-69
2022/12/25 11:38:46;;;;;;;0.00;0.00;;;9.30;95.00;;;;;;5028083;28;20076;-70
2022/12/25 11:41:19;;;;;;;0.00;0.00;;;9.40;94.90;;;;;;5027011;28;20049;-69
2022/12/25 11:43:58;;;;;;;0.10;0.10;;;9.30;94.90;;;;;;5026807;28;20068;-70
2022/12/25 11:46:30;;;;;;;0.65;0.63;;;9.40;94.90;;;;;;5009668;28;20414;-69
2022/12/25 11:49:04;;;;;;;0.00;0.00;;;9.30;94.90;;;;;;5028215;28;20076;-70
2022/12/25 11:51:34;;;;;;;0.00;0.00;;;9.30;94.80;;;;;;5006752;28;20072;-69
2022/12/25 11:54:46;;;;;;;0.08;0.08;;;9.30;94.90;;;;;;5031912;28;20049;-70
2022/12/25 11:57:12;;;;;;;0.00;0.00;;;9.40;94.80;;;;;;4919976;29;20481;-69
2022/12/25 11:59:55;;;;;;;0.00;0.00;;;9.40;94.80;;;;;;4918248;29;20074;-69
2022/12/25 12:02:32;;;;;;;0.00;0.00;;;9.40;94.70;;;;;;4980112;28;20060;-69
2022/12/25 12:05:28;;;;;;;0.00;0.00;;;9.30;94.80;;;;;;5029352;28;20130;-69
2022/12/25 12:08:00;;;;;;;0.00;0.00;;;9.40;94.70;;;;;;5003904;28;20053;-69
2022/12/25 12:10:41;;;;;;;0.15;0.15;;;9.40;94.70;;;;;;5027013;28;20041;-70
2022/12/25 12:14:04;;;;;;;0.10;0.10;;;9.40;94.70;;;;;;5029029;28;20059;-70
2022/12/25 12:16:29;;;;;;;;;;;9.40;94.70;;;;;;4945248;28;21011;-70
2022/12/25 12:18:55;;;;;;;1.02;0.30;;;9.30;94.60;;;;;;4903900;29;19926;-70
2022/12/25 12:21:22;;;;;;;0.00;0.00;;;9.30;94.60;;;;;;4993553;28;20057;-70
2022/12/25 12:24:04;;;;;;;0.00;0.00;;;9.30;94.60;;;;;;5025554;28;20402;-70
2022/12/25 12:26:35;;;;;;;0.00;0.00;;;9.40;94.60;;;;;;5010036;28;20057;-69
2022/12/25 12:29:03;;;;;;;0.00;0.00;;;9.40;94.60;;;;;;5029997;28;20053;-70
2022/12/25 12:31:44;;;;;;;0.13;0.13;;;9.30;94.60;;;;;;4990798;28;20083;-70
2022/12/25 12:34:29;;;;;;;0.00;0.00;;;9.30;94.50;;;;;;5010570;28;20080;-70
2022/12/25 12:37:05;;;;;;;0.10;0.10;;;9.30;94.50;;;;;;5025039;28;20414;-70
2022/12/25 12:39:37;;;;;;;0.00;0.00;;;9.30;94.50;;;;;;5026529;28;20048;-70
2022/12/25 12:42:20;;;;;;;0.00;0.00;;;9.20;94.50;;;;;;5023501;28;20045;-70
2022/12/25 12:44:48;;;;;;;0.00;0.00;;;9.30;94.50;;;;;;5027157;28;20128;-68
2022/12/25 12:47:36;;;;;;;0.10;0.10;;;9.30;94.50;;;;;;5011088;28;20045;-68
2022/12/25 12:50:03;;;;;;;0.00;0.00;;;9.30;94.50;;;;;;5030667;28;20053;-68
2022/12/25 12:52:37;;;;;;;0.00;0.00;;;9.30;94.50;;;;;;5014922;28;20046;-68
2022/12/25 12:55:11;;;;;;;0.45;0.43;;;9.30;94.50;;;;;;5028113;28;20088;-68
2022/12/25 12:57:40;;;;;;;1.55;0.70;;;9.30;94.50;;;;;;5029463;28;20056;-68
2022/12/25 13:00:17;;;;;;;0.00;0.00;;;9.30;94.50;;;;;;5026154;28;20045;-69
2022/12/25 13:02:45;;;;;;;0.00;0.00;;;9.40;94.50;;;;;;5025888;28;20123;-68
2022/12/25 13:05:39;;;;;;;0.00;0.00;;;9.30;94.40;;;;;;5028351;28;20071;-68
2022/12/25 13:08:26;;;;;;;0.00;0.00;;;9.30;94.50;;;;;;5026520;28;20512;-68
2022/12/25 13:11:18;;;;;;;0.20;0.20;;;9.30;94.40;;;;;;5025232;28;21234;-68
2022/12/25 13:13:47;;;;;;;0.00;0.00;;;9.30;94.50;;;;;;5025450;28;20513;-68
2022/12/25 13:16:38;;;;;;;0.00;0.00;;;9.30;94.50;;;;;;5031084;28;20049;-67
2022/12/25 13:19:13;;;;;;;0.00;0.00;;;9.40;94.50;;;;;;5028051;28;21098;-70
2022/12/25 13:21:39;;;;;;;0.00;0.00;;;9.30;94.50;;;;;;5023613;28;20553;-69
2022/12/25 13:24:16;;;;;;;0.00;0.00;;;9.40;94.50;;;;;;5026652;28;20083;-68
2022/12/25 13:26:42;;;;;;;0.00;0.00;;;9.50;94.50;;;;;;5021627;28;20057;-69
2022/12/25 13:29:27;;;;;;;0.00;0.00;;;9.50;94.50;;;;;;5026834;28;20099;-69
2022/12/25 13:31:53;;;;;;;0.52;0.52;;;9.60;94.50;;;;;;5010090;28;20132;-68
2022/12/25 13:34:27;;;;;;;0.00;0.00;;;9.60;94.50;;;;;;5026394;28;20048;-69
2022/12/25 13:36:54;;;;;;;0.75;0.65;;;9.60;94.50;;;;;;5009640;28;20043;-69
2022/12/25 13:39:23;;;;;;;0.00;0.00;;;9.60;94.40;;;;;;5027430;28;20136;-69
2022/12/25 13:42:04;;;;;;;0.00;0.00;;;9.60;94.40;;;;;;5024036;28;20156;-69
2022/12/25 13:44:46;;;;;;;0.20;0.20;;;9.60;94.40;;;;;;5019776;28;20451;-70
2022/12/25 13:47:18;;;;;;;;;;;9.60;94.40;;;;;;5023309;28;20520;-70
2022/12/25 13:49:46;;;;;;;0.00;0.00;;;9.60;94.20;;;;;;5010503;28;20397;-69
2022/12/25 13:52:16;;;;;;;0.00;0.00;;;9.60;94.20;;;;;;5027423;28;20053;-69
2022/12/25 13:54:59;;;;;;;0.08;0.08;;;9.60;94.30;;;;;;5009189;28;20049;-70
2022/12/25 13:57:37;;;;;;;0.00;0.00;;;9.60;94.30;;;;;;5027065;28;20378;-70
2022/12/25 14:00:06;;;;;;;0.00;0.00;;;9.60;94.30;;;;;;5016682;28;20398;-70
2022/12/25 14:02:36;;;;;;;0.00;0.00;;;9.60;94.20;;;;;;5007865;28;20057;-70
2022/12/25 14:05:03;;;;;;;0.20;0.20;;;9.60;94.20;;;;;;5026910;28;20157;-70
2022/12/25 14:07:29;;;;;;;0.00;0.00;;;9.60;94.20;;;;;;4990892;28;20057;-71
2022/12/25 14:10:00;;;;;;;0.30;0.30;;;9.50;94.20;;;;;;5024535;28;20038;-71
2022/12/25 14:12:29;;;;;;;0.00;0.00;;;9.50;94.10;;;;;;4992458;28;20054;-71
2022/12/25 14:14:57;;;;;;;0.00;0.00;;;9.50;94.00;;;;;;5022316;28;20045;-71
2022/12/25 14:17:23;;;;;;;0.00;0.00;;;9.50;94.10;;;;;;5008957;28;20084;-71
2022/12/25 14:19:59;;;;;;;0.00;0.00;;;9.50;94.10;;;;;;5026270;28;20136;-69
2022/12/25 14:22:25;;;;;;;0.00;0.00;;;9.40;94.00;;;;;;5026840;28;20073;-70
2022/12/25 14:24:51;;;;;;;0.00;0.00;;;9.40;94.10;;;;;;4992750;28;21346;-70
2022/12/25 14:27:21;;;;;;;0.00;0.00;;;9.40;94.20;;;;;;4992972;28;20057;-69
2022/12/25 14:29:49;;;;;;;0.00;0.00;;;9.40;94.10;;;;;;5021801;28;20073;-70
2022/12/25 14:32:26;;;;;;;0.25;0.25;;;9.40;94.10;;;;;;5025045;28;20049;-70
2022/12/25 14:34:58;;;;;;;0.13;0.13;;;9.40;94.10;;;;;;5022816;28;20038;-69
2022/12/25 14:37:28;;;;;;;0.22;0.22;;;9.40;94.10;;;;;;5007875;28;20088;-71
2022/12/25 14:40:03;;;;;;;0.00;0.00;;;9.40;94.10;;;;;;5025426;28;20132;-70
2022/12/25 14:42:32;;;;;;;0.10;0.10;;;9.40;94.10;;;;;;5021364;28;20387;-70
2022/12/25 14:45:21;;;;;;;0.20;0.20;;;9.40;94.10;;;;;;5023546;28;20049;-69
2022/12/25 14:47:55;;;;;;;0.43;0.43;;;9.40;94.00;;;;;;5007408;28;20045;-70
2022/12/25 14:50:38;;;;;;;0.00;0.00;;;9.40;94.10;;;;;;5025303;28;20774;-70
2022/12/25 14:53:15;;;;;;;0.00;0.00;;;9.40;94.00;;;;;;5006315;28;20119;-70
2022/12/25 14:55:47;;;;;;;0.00;0.00;;;9.30;94.10;;;;;;5026138;28;20065;-70
2022/12/25 14:58:21;;;;;;;0.00;0.00;;;9.40;94.10;;;;;;5023492;28;20081;-70